Sonic Adventure (DX): Time Rankings

Records: Times | Rings | Scores | Races | Bosses | Freestyle
Leaders: Times | Rings | Scores | Races | Bosses | Freestyle | Overall
Rank Player Percent Points Date
1 Gamepro011 99.6% 19 05-01-16
2 Sonicspeedruner 98.8% 62 05-01-16
3 Dashjump 95.4% 248 05-01-16
4 Jawzun 95.4% 249 05-01-16
5 DarkPolarNight 93.1% 369 05-01-16
6 F-Man 92.3% 414 05-01-16
7 drminus 92.2% 419 05-01-16
8 THC98 91.4% 461 05-01-16
9 ike6252 89.9% 547 05-01-16
10 Avento128bits 89.5% 564 05-01-16
11 francisco 89.2% 584 05-01-16
12 DarkspinesSonic 88.7% 608 05-01-16
13 Marth 88.6% 614 05-01-16
14 frankoredstrato 87.4% 681 05-01-16
15 Paragod 84.5% 835 05-01-16
16 HyperSonic7701 84.2% 855 05-01-16
17 chainchumper 84.2% 856 05-01-16
18 InferSaime 81.2% 1014 05-01-16
19 TheRealShadnic 81.2% 1018 05-01-16
20 Stefan 79.7% 1098 05-01-16
21 Redd 79.3% 1121 05-01-16
22 PfoSonic 79.1% 1130 05-01-16
23 Coolfansonic 79.0% 1138 05-01-16
24 bertin 77.3% 1230 05-01-16
25 yoshifan 76.7% 1262 05-01-16
26 xXMegaManXx 76.7% 1263 05-01-16
27 Dawid8404 75.9% 1303 05-01-16
28 Dave Cramer 75.1% 1349 05-01-16
29 RPGnutter 74.6% 1376 05-01-16
30 sonicam 73.0% 1461 05-01-16
31 Cybrax 72.9% 1465 05-01-16
32 Ring Rush 70.1% 1617 05-01-16
33 mike89 69.3% 1662 05-01-16
34 NintenDan 69.2% 1666 05-01-16
35 a_moustache 68.1% 1728 05-01-16
36 SkyLights 65.4% 1876 05-01-16
37 Combo 63.9% 1957 05-01-16
38 SADXTryHard 62.0% 2056 05-01-16
39 P1 Pause 61.0% 2110 05-01-16
40 Nimrod 60.6% 2135 05-01-16
41 Groudon199 59.1% 2214 05-01-16
42 Game_Complete 59.1% 2217 05-01-16
43 AxlThunder 58.6% 2243 05-01-16
44 Shadow Jacky 58.4% 2253 05-01-16
45 VMU Player Banned 57.6% 2294 05-01-16
46 Thorn 57.1% 2323 05-01-16
47 SB737 56.1% 2378 05-01-16
48 The Knuckles Chao 56.1% 2380 05-01-16
49 Parax 55.7% 2399 05-01-16
50 Chao_Fan 55.6% 2405 05-01-16
51 SadisticMystic 55.6% 2406 05-01-16
52 Mastakirby 55.1% 2432 05-01-16
53 KinkyCadence 55.0% 2435 05-01-16
54 LittleBigness 54.9% 2441 05-01-16
55 mauserman 54.8% 2447 05-01-16
56 OmegaDJ 54.6% 2460 05-01-16
57 Psyknux 54.4% 2468 05-01-16
58 Auriman1 53.8% 2504 05-01-16
59 magnum12 53.7% 2508 05-01-16
60 Turbos 53.3% 2529 05-01-16
61 GerbilSoft 52.8% 2556 05-01-16
62 GreatStar 52.6% 2565 05-01-16
63 Webber3000 52.1% 2596 05-01-16
64 Hipertails12 51.4% 2630 05-01-16
65 James_Bertolli 48.9% 2768 05-01-16
66 Cream147 48.5% 2791 05-01-16
67 Skylace 47.9% 2824 05-01-16
68 welldooder64 47.8% 2828 05-01-16
69 Diamond 47.6% 2840 05-01-16
69 Omega Rafael Santos 47.6% 2840 05-01-16
71 Quartz 47.4% 2849 05-01-16
72 Psymar 47.1% 2864 05-01-16
73 SonicWinDX 46.8% 2881 05-01-16
74 teamblackarms 46.0% 2924 05-01-16
75 Andrea Ritsu 45.4% 2959 05-01-16
76 buddychaos0415 45.3% 2965 05-01-16
77 SilverSonic 44.7% 2997 05-01-16
78 SilvertheAlmighty 44.1% 3030 05-01-16
79 WeegeeZV 44.0% 3032 05-01-16
80 itsPersonnal 44.0% 3033 05-01-16
81 metanightmare22 43.1% 3081 05-01-16
82 lordmetalsonic 41.0% 3196 05-01-16
83 Arch 40.7% 3215 05-01-16
84 Termon 40.1% 3246 05-01-16
85 videogamemaster777 39.7% 3265 05-01-16
86 supersonicfan 39.4% 3283 05-01-16
87 Drakodan 39.2% 3293 05-01-16
88 Kanimayo_Jp 38.9% 3310 05-01-16
89 LilZero 38.4% 3336 05-01-16
90 paulie9990 38.4% 3338 05-01-16
91 FuzZerd 38.1% 3351 05-01-16
92 supersonic465 38.1% 3356 05-01-16
93 eggFL 37.5% 3386 05-01-16
94 Don 37.4% 3389 05-01-16
95 Siavash Tazari 35.9% 3473 05-01-16
96 Fr3nZy 35.8% 3480 05-01-16
97 Cod4Scopes 35.1% 3515 05-01-16
98 f0rever_zer0 34.9% 3525 05-01-16
99 Cyan Ryan 34.4% 3556 05-01-16
100 Austinf 34.0% 3576 05-01-16
101 LinksDarkArrows 33.9% 3579 05-01-16
102 Therio 33.9% 3581 05-01-16
103 danieldude 33.4% 3609 05-01-16
104 elecmouse101 33.0% 3629 05-01-16
105 Staf 32.8% 3640 05-01-16
106 MiStEr_ShAoLiN 32.5% 3658 05-01-16
107 BrokenArthritis 32.3% 3668 05-01-16
108 Twilisailor 32.1% 3679 05-01-16
109 videogamer1014 31.9% 3691 05-01-16
110 Xia 31.4% 3717 05-01-16
111 AC-Tygo 31.1% 3735 05-01-16
112 welshmoose05 31.0% 3741 05-01-16
113 OddCook 30.2% 3784 05-01-16
114 The Great Lord Mick 29.9% 3800 05-01-16
115 Mcshuggets 29.8% 3806 05-01-16
116 Maxinfamily 29.5% 3818 05-01-16
117 Aitamen 29.4% 3827 05-01-16
118 joecoolgames 29.3% 3832 05-01-16
119 Matt_TY 29.1% 3843 05-01-16
120 dabestgamer 28.8% 3856 05-01-16
121 imazor017 28.8% 3858 05-01-16
122 SuperSonic101 27.7% 3919 05-01-16
123 Shadowthegreat 27.4% 3931 05-01-16
124 superjupi 27.3% 3937 05-01-16
125 Hunters13 27.1% 3951 05-01-16
126 thewaytodawnnn 27.0% 3958 05-01-16
127 Rolken 26.9% 3959 05-01-16
128 iarebored 26.4% 3988 05-01-16
129 sonamyfan666 26.3% 3991 05-01-16
130 SaviourDC 26.3% 3992 05-01-16
131 koinu93 26.2% 3998 05-01-16
132 Spinballwizard 26.0% 4007 05-01-16
133 SonicKnuckles 25.9% 4015 05-01-16
134 EngiNerd 24.9% 4069 05-01-16
135 adf 24.9% 4070 05-01-16
136 Megaman EXE565 24.2% 4109 05-01-16
137 The T 23.9% 4123 05-01-16
138 Sonic Singularity 23.3% 4158 05-01-16
139 Pokemonmaster888 23.2% 4162 05-01-16
140 Platformer 23.2% 4163 05-01-16
141 SeaWolf 23.1% 4168 05-01-16
142 ethmar 22.6% 4192 05-01-16
143 timpkmn89 22.5% 4198 05-01-16
144 SuperBlitzCraig 22.5% 4199 05-01-16
144 Swift Hobo 22.5% 4199 05-01-16
146 Rickyman48 22.0% 4226 05-01-16
147 Sondow 21.8% 4235 05-01-16
148 FoxBoy 21.4% 4260 05-01-16
149 KitsuneYamaro 21.2% 4272 05-01-16
150 TFEC Headshot 21.0% 4281 05-01-16
151 Jerzia 20.9% 4286 05-01-16
152 Kogen Player Banned 20.4% 4313 05-01-16
153 Starlight Sable 19.9% 4340 05-01-16
154 IsisDazs 19.6% 4359 05-01-16
155 HyperSonic64 19.2% 4376 05-01-16
156 crazy1993 18.9% 4395 05-01-16
157 andres430 18.6% 4409 05-01-16
158 SonicU260 17.5% 4468 05-01-16
159 SonicAD 17.3% 4479 05-01-16
160 sonicd5 17.2% 4484 05-01-16
161 MPit08 17.2% 4485 05-01-16
162 iSonicKid2K 16.5% 4524 05-01-16
163 dShadow 16.5% 4527 05-01-16
164 BigAL49 16.0% 4551 05-01-16
164 Miles9999 16.0% 4551 05-01-16
166 Chawkk 15.9% 4556 05-01-16
167 Cutiefox 15.9% 4557 05-01-16
168 Monkeh 15.7% 4566 05-01-16
169 DaDude 15.3% 4590 05-01-16
170 Drflash55 14.9% 4609 05-01-16
171 Bass 14.6% 4627 05-01-16
172 Yish 14.6% 4629 05-01-16
173 Cruizer 14.3% 4644 05-01-16
174 neaolas 14.3% 4645 05-01-16
175 UninspiredUsername 14.2% 4650 05-01-16
176 zapp 14.2% 4651 05-01-16
177 superiorsonic 14.0% 4659 05-01-16
178 gamefreak1292 13.8% 4671 05-01-16
179 Cooljay 13.1% 4707 05-01-16
180 Chaos_Overlord 12.9% 4722 05-01-16
181 Badlex727 12.3% 4750 05-01-16
182 Valfore 12.3% 4754 05-01-16
183 GarnetPrincess 12.0% 4769 05-01-16
184 ShinigamiMachine 11.9% 4774 05-01-16
185 soniccoloursunleashed 11.8% 4779 05-01-16
186 Sonicsuperstar1 11.4% 4799 05-01-16
187 FocusSight64 11.0% 4823 05-01-16
188 Werey 10.9% 4828 05-01-16
189 booo95 10.8% 4833 05-01-16
190 SirTobbii 10.7% 4841 05-01-16
191 Mo Player Banned 10.6% 4845 05-01-16
192 sonicspeed 10.4% 4853 05-01-16
193 Venick409 9.7% 4891 05-01-16
194 nman36 9.6% 4899 05-01-16
195 Sithwarrior26 9.6% 4901 05-01-16
196 ingx24 9.2% 4921 05-01-16
197 CyberShadow 9.1% 4927 05-01-16
198 Fozer 8.6% 4953 05-01-16
199 Egor305 8.5% 4960 05-01-16
200 Regano1000 8.3% 4967 05-01-16
201 Colomb_30 8.3% 4969 05-01-16
202 dekki1234 8.2% 4972 05-01-16
203 1stKirbyever 8.1% 4981 05-01-16
204 TimTH 7.9% 4990 05-01-16
205 nuckrieg 7.8% 4997 05-01-16
206 Brian_pso 7.8% 4999 05-01-16
207 douglas 7.5% 5015 05-01-16
208 TakaRikka 7.4% 5017 05-01-16
209 Th4tN1nj4Turtl3 7.3% 5022 05-01-16
210 Zip 7.2% 5028 05-01-16
211 Mariosonic15 7.0% 5041 05-01-16
211 Wanamaker 7.0% 5041 05-01-16
211 wheatrich 7.0% 5041 05-01-16
214 SonataSpinDash 6.9% 5045 05-01-16
215 MStitomix 6.7% 5054 05-01-16
216 ieatatsonic 6.6% 5060 05-01-16
217 HermitHelmet 6.6% 5061 05-01-16
218 niscool 6.6% 5064 05-01-16
219 Got4n 6.4% 5073 05-01-16
220 Cort_pso 6.4% 5074 05-01-16
221 Triseena 6.2% 5085 05-01-16
222 Jose_15 6.1% 5091 05-01-16
223 Artie 5.8% 5106 05-01-16
223 SuperSonicfan9595 5.8% 5106 05-01-16
225 BlankTH 5.7% 5109 05-01-16
226 Ace747 5.5% 5121 05-01-16
226 HHNNBBHHN 5.5% 5121 05-01-16
228 Richied 5.3% 5131 05-01-16
229 Paixii 5.2% 5135 05-01-16
230 Aiko 5.1% 5141 05-01-16
231 BallzeH 4.9% 5151 05-01-16
232 slade23 4.9% 5152 05-01-16
233 FSSRandomvids 4.9% 5155 05-01-16
234 ArcticDragon 4.9% 5156 05-01-16
235 PsyBorg 4.8% 5159 05-01-16
236 Jamixesa 4.8% 5160 05-01-16
237 BecauseWarAnvil 4.8% 5161 05-01-16
237 Mankster101 4.8% 5161 05-01-16
239 Crydio 4.6% 5168 05-01-16
240 Nickson98 4.6% 5169 05-01-16
241 TheUltraBlur 4.4% 5179 05-01-16
242 ReuelBrony 4.4% 5181 05-01-16
243 stanski 4.3% 5188 05-01-16
244 MarewBFN 4.2% 5191 05-01-16
245 tal39h 4.1% 5198 05-01-16
246 Blue Infamy 4.0% 5205 05-01-16
247 knuckles_sonic8 3.9% 5206 05-01-16
247 p0ker 3.9% 5206 05-01-16
249 ErrortheCucco 3.8% 5215 05-01-16
250 Rikum22 3.7% 5218 05-01-16
251 sonic1001 3.5% 5227 05-01-16
252 TheChaosEmeraIds 3.5% 5230 05-01-16
253 AJSIV 3.4% 5234 05-01-16
254 syco1098 3.4% 5235 05-01-16
255 Sonic the Hedgehod16 3.3% 5239 05-01-16
256 sonicfan9 3.2% 5246 05-01-16
257 Calfd 3.2% 5248 05-01-16
258 themachoman202 2.9% 5260 05-01-16
259 MK 2.9% 5264 05-01-16
260 Fivavoa 2.8% 5269 05-01-16
261 BlackArmsShadow 2.8% 5270 05-01-16
261 Mr. Jones 2.8% 5270 05-01-16
263 djmat 2.7% 5272 05-01-16
264 arcfx1985 2.7% 5273 05-01-16
265 ptorflaxendrosis 2.7% 5274 05-01-16
266 Sonique Hedgehog 2.6% 5276 05-01-16
267 FlandreScarlet9999vr 2.6% 5280 05-01-16
268 Zeldocto 2.5% 5283 05-01-16
269 BeeAwwb 2.4% 5287 05-01-16
270 KaM Mark MaK 2.4% 5290 05-01-16
271 ShadouZaHejjihoggu 2.3% 5295 05-01-16
272 darkstarblaze 2.2% 5302 05-01-16
272 Sonic The Star 2.2% 5302 05-01-16
274 darkersupershadic 2.1% 5303 05-01-16
275 SpiritDragon1995 2.1% 5304 05-01-16
276 sonic29887 2.1% 5308 05-01-16
277 Grady219 2.0% 5309 05-01-16
278 Sarger001 2.0% 5310 05-01-16
279 Jawaah 1.9% 5314 05-01-16
279 shadowblast63 Player Banned 1.9% 5314 05-01-16
281 Antek 1.8% 5319 05-01-16
282 Klaus 1.8% 5321 05-01-16
283 BioShadow 1.7% 5327 05-01-16
284 Shanekilz 1.4% 5343 05-01-16
285 SkyBon 1.4% 5344 05-01-16
286 isaihtb11 1.4% 5345 05-01-16
287 OhNoes! 1.3% 5347 05-01-16
288 zaktu40 1.3% 5349 05-01-16
289 gaara1234 1.2% 5352 05-01-16
290 S-MS32X-S 1.2% 5353 05-01-16
291 MastaToken 1.1% 5359 05-01-16
292 Mister_Slick 1.1% 5362 05-01-16
293 Sonic06Fan 1.0% 5366 05-01-16
294 Rush Hero 0.9% 5368 05-01-16
295 SonicMega167 0.9% 5373 05-01-16
296 oTaiIilLsS 0.8% 5374 05-01-16
297 SilverK 0.8% 5375 05-01-16
298 gamed00d 0.8% 5376 05-01-16
299 Burningskull123 0.5% 5392 05-01-16
300 Heroes_Hater 0.5% 5394 05-01-16
301 Sonicontherun 0.3% 5402 05-01-16
302 antiwwe 0.2% 5408 05-01-16
303 Iwannabelink 0.2% 5410 05-01-16
304 Genuine Hedgehog 0.1% 5412 05-01-16
305 dragondragon18 0.1% 5415 05-01-16
306 SonicK100 0.1% 5416 05-01-16
307 Tyrouble 0.0% 5421 05-01-16
308 LancexExWx 0.0% 5422 05-01-16
308 neji_hyuuga 0.0% 5422 05-01-16
308 Over 0.0% 5422 05-01-16
308 sdj6707 Player Banned 0.0% 5422 05-01-16
308 Tran Sonic Fan Player Banned 0.0% 5422 05-01-16

This page is using the New Data Table System. [FUTURE]

Game ID: 3 | Category ID: 1
Hits: 8,024 | Hits This Month: 5 | DB Calls: 24 | Mem Usage: 5.45 MB | Time: 0.48s | Printable

The Sonic Center v3.9
Copyright 2003-2011 by The Sonic Center Team.